sensor_id;sensor_type;location;lat;lon;timestamp;temperature;humidity
17813;DHT22;9030;50.792;8.320;2022-12-11T00:01:44;-3.10;99.90
17813;DHT22;9030;50.792;8.320;2022-12-11T00:04:11;-3.10;99.90
17813;DHT22;9030;50.792;8.320;2022-12-11T00:06:38;-3.10;99.90
17813;DHT22;9030;50.792;8.320;2022-12-11T00:09:05;-3.10;99.90
17813;DHT22;9030;50.792;8.320;2022-12-11T00:11:32;-3.20;99.90
17813;DHT22;9030;50.792;8.320;2022-12-11T00:13:59;-3.20;99.90
17813;DHT22;9030;50.792;8.320;2022-12-11T00:16:26;-3.20;99.90
17813;DHT22;9030;50.792;8.320;2022-12-11T00:18:54;-3.30;99.90
17813;DHT22;9030;50.792;8.320;2022-12-11T00:21:21;-3.30;99.90
17813;DHT22;9030;50.792;8.320;2022-12-11T00:23:47;-3.10;99.90
17813;DHT22;9030;50.792;8.320;2022-12-11T00:26:14;-3.00;99.90
17813;DHT22;9030;50.792;8.320;2022-12-11T00:28:42;-3.00;99.90
17813;DHT22;9030;50.792;8.320;2022-12-11T00:31:12;-3.00;99.90
17813;DHT22;9030;50.792;8.320;2022-12-11T00:33:39;-3.00;99.90
17813;DHT22;9030;50.792;8.320;2022-12-11T00:36:12;-3.00;99.90
17813;DHT22;9030;50.792;8.320;2022-12-11T00:38:39;-3.00;99.90
17813;DHT22;9030;50.792;8.320;2022-12-11T00:41:06;-3.00;99.90
17813;DHT22;9030;50.792;8.320;2022-12-11T00:43:32;-3.00;99.90
17813;DHT22;9030;50.792;8.320;2022-12-11T00:45:59;-3.00;99.90
17813;DHT22;9030;50.792;8.320;2022-12-11T00:48:26;-2.90;99.90
17813;DHT22;9030;50.792;8.320;2022-12-11T00:50:53;-2.90;99.90
17813;DHT22;9030;50.792;8.320;2022-12-11T00:53:21;-2.90;99.90
17813;DHT22;9030;50.792;8.320;2022-12-11T00:55:48;-2.90;99.90
17813;DHT22;9030;50.792;8.320;2022-12-11T00:58:15;-2.90;99.90
17813;DHT22;9030;50.792;8.320;2022-12-11T01:00:42;-3.00;99.90
17813;DHT22;9030;50.792;8.320;2022-12-11T01:03:10;-3.00;99.90
17813;DHT22;9030;50.792;8.320;2022-12-11T01:05:38;-2.90;99.90
17813;DHT22;9030;50.792;8.320;2022-12-11T01:08:05;-3.00;99.90
17813;DHT22;9030;50.792;8.320;2022-12-11T01:10:34;-3.10;99.90
17813;DHT22;9030;50.792;8.320;2022-12-11T01:13:01;-3.20;99.90
17813;DHT22;9030;50.792;8.320;2022-12-11T01:15:30;-3.20;99.90
17813;DHT22;9030;50.792;8.320;2022-12-11T01:17:57;-3.20;99.90
17813;DHT22;9030;50.792;8.320;2022-12-11T01:20:24;-3.20;99.90
17813;DHT22;9030;50.792;8.320;2022-12-11T01:22:53;-3.20;99.90
17813;DHT22;9030;50.792;8.320;2022-12-11T01:25:20;-3.20;99.90
17813;DHT22;9030;50.792;8.320;2022-12-11T01:27:49;-3.20;99.90
17813;DHT22;9030;50.792;8.320;2022-12-11T01:30:16;-3.10;99.90
17813;DHT22;9030;50.792;8.320;2022-12-11T01:32:43;-3.10;99.90
17813;DHT22;9030;50.792;8.320;2022-12-11T01:35:10;-3.00;99.90
17813;DHT22;9030;50.792;8.320;2022-12-11T01:37:37;-3.00;99.90
17813;DHT22;9030;50.792;8.320;2022-12-11T01:40:06;-2.90;99.90
17813;DHT22;9030;50.792;8.320;2022-12-11T01:42:33;-2.80;99.90
17813;DHT22;9030;50.792;8.320;2022-12-11T01:45:22;-2.80;99.90
17813;DHT22;9030;50.792;8.320;2022-12-11T01:47:52;-3.00;99.90
17813;DHT22;9030;50.792;8.320;2022-12-11T01:50:20;-2.90;99.90
17813;DHT22;9030;50.792;8.320;2022-12-11T01:52:48;-2.90;99.90
17813;DHT22;9030;50.792;8.320;2022-12-11T01:55:16;-2.90;99.90
17813;DHT22;9030;50.792;8.320;2022-12-11T01:57:44;-3.00;99.90
17813;DHT22;9030;50.792;8.320;2022-12-11T02:00:13;-2.80;99.90
17813;DHT22;9030;50.792;8.320;2022-12-11T02:02:41;-2.80;99.90
17813;DHT22;9030;50.792;8.320;2022-12-11T02:05:08;-2.80;99.90
17813;DHT22;9030;50.792;8.320;2022-12-11T02:07:40;-2.90;99.90
17813;DHT22;9030;50.792;8.320;2022-12-11T02:10:09;-2.70;99.90
17813;DHT22;9030;50.792;8.320;2022-12-11T02:12:42;-2.70;99.90
17813;DHT22;9030;50.792;8.320;2022-12-11T02:15:16;-2.70;99.90
17813;DHT22;9030;50.792;8.320;2022-12-11T02:17:53;-2.60;99.90
17813;DHT22;9030;50.792;8.320;2022-12-11T02:20:24;-2.60;99.90
17813;DHT22;9030;50.792;8.320;2022-12-11T02:23:15;-2.60;99.90
17813;DHT22;9030;50.792;8.320;2022-12-11T02:25:50;-2.60;99.90
17813;DHT22;9030;50.792;8.320;2022-12-11T02:28:22;-2.70;99.90
17813;DHT22;9030;50.792;8.320;2022-12-11T02:30:56;-2.70;99.90
17813;DHT22;9030;50.792;8.320;2022-12-11T02:33:30;-2.60;99.90
17813;DHT22;9030;50.792;8.320;2022-12-11T02:36:00;-2.60;99.90
17813;DHT22;9030;50.792;8.320;2022-12-11T02:38:31;-2.50;99.90
17813;DHT22;9030;50.792;8.320;2022-12-11T02:41:00;-2.60;99.90
17813;DHT22;9030;50.792;8.320;2022-12-11T02:43:30;-2.50;99.90
17813;DHT22;9030;50.792;8.320;2022-12-11T02:45:58;-2.50;99.90
17813;DHT22;9030;50.792;8.320;2022-12-11T02:48:26;-2.50;99.90
17813;DHT22;9030;50.792;8.320;2022-12-11T02:50:56;-2.40;99.90
17813;DHT22;9030;50.792;8.320;2022-12-11T02:53:26;-2.40;99.90
17813;DHT22;9030;50.792;8.320;2022-12-11T02:55:58;-2.40;99.90
17813;DHT22;9030;50.792;8.320;2022-12-11T02:58:31;-2.60;99.90
17813;DHT22;9030;50.792;8.320;2022-12-11T03:00:58;-2.60;99.90
17813;DHT22;9030;50.792;8.320;2022-12-11T03:03:27;-2.50;99.90
17813;DHT22;9030;50.792;8.320;2022-12-11T03:05:55;-2.40;99.90
17813;DHT22;9030;50.792;8.320;2022-12-11T03:08:22;-2.40;99.90
17813;DHT22;9030;50.792;8.320;2022-12-11T03:10:49;-2.40;99.90
17813;DHT22;9030;50.792;8.320;2022-12-11T03:13:18;-2.50;99.90
17813;DHT22;9030;50.792;8.320;2022-12-11T03:15:56;-2.50;99.90
17813;DHT22;9030;50.792;8.320;2022-12-11T03:18:29;-2.40;99.90
17813;DHT22;9030;50.792;8.320;2022-12-11T03:21:04;-2.30;99.90
17813;DHT22;9030;50.792;8.320;2022-12-11T03:23:36;-2.30;99.90
17813;DHT22;9030;50.792;8.320;2022-12-11T03:26:11;-2.30;99.90
17813;DHT22;9030;50.792;8.320;2022-12-11T03:28:43;-2.20;99.90
17813;DHT22;9030;50.792;8.320;2022-12-11T03:31:16;-2.20;99.90
17813;DHT22;9030;50.792;8.320;2022-12-11T03:33:46;-2.20;99.90
17813;DHT22;9030;50.792;8.320;2022-12-11T03:36:19;-2.20;99.90
17813;DHT22;9030;50.792;8.320;2022-12-11T03:38:50;-2.30;99.90
17813;DHT22;9030;50.792;8.320;2022-12-11T03:41:21;-2.30;99.90
17813;DHT22;9030;50.792;8.320;2022-12-11T03:43:50;-2.30;99.90
17813;DHT22;9030;50.792;8.320;2022-12-11T03:46:21;-2.20;99.90
17813;DHT22;9030;50.792;8.320;2022-12-11T03:48:49;-2.20;99.90
17813;DHT22;9030;50.792;8.320;2022-12-11T03:51:18;-2.20;99.90
17813;DHT22;9030;50.792;8.320;2022-12-11T03:53:46;-2.20;99.90
17813;DHT22;9030;50.792;8.320;2022-12-11T03:56:15;-2.20;99.90
17813;DHT22;9030;50.792;8.320;2022-12-11T03:58:43;-2.20;99.90
17813;DHT22;9030;50.792;8.320;2022-12-11T04:01:10;-2.10;99.90
17813;DHT22;9030;50.792;8.320;2022-12-11T04:03:38;-2.20;99.90
17813;DHT22;9030;50.792;8.320;2022-12-11T04:06:06;-2.20;99.90
17813;DHT22;9030;50.792;8.320;2022-12-11T04:08:33;-2.20;99.90
17813;DHT22;9030;50.792;8.320;2022-12-11T04:11:01;-2.20;99.90
17813;DHT22;9030;50.792;8.320;2022-12-11T04:13:46;-2.20;99.90
17813;DHT22;9030;50.792;8.320;2022-12-11T04:16:33;-2.20;99.90
17813;DHT22;9030;50.792;8.320;2022-12-11T04:19:00;-2.20;99.90
17813;DHT22;9030;50.792;8.320;2022-12-11T04:21:45;-2.10;99.90
17813;DHT22;9030;50.792;8.320;2022-12-11T04:24:29;-2.10;99.90
17813;DHT22;9030;50.792;8.320;2022-12-11T04:26:56;-2.10;99.90
17813;DHT22;9030;50.792;8.320;2022-12-11T04:29:23;-2.00;99.90
17813;DHT22;9030;50.792;8.320;2022-12-11T04:31:50;-2.00;99.90
17813;DHT22;9030;50.792;8.320;2022-12-11T04:34:18;-2.10;99.90
17813;DHT22;9030;50.792;8.320;2022-12-11T04:36:45;-2.10;99.90
17813;DHT22;9030;50.792;8.320;2022-12-11T04:39:11;-2.10;99.90
17813;DHT22;9030;50.792;8.320;2022-12-11T04:41:39;-2.10;99.90
17813;DHT22;9030;50.792;8.320;2022-12-11T04:44:06;-2.10;99.90
17813;DHT22;9030;50.792;8.320;2022-12-11T04:46:33;-2.00;99.90
17813;DHT22;9030;50.792;8.320;2022-12-11T04:49:00;-2.10;99.90
17813;DHT22;9030;50.792;8.320;2022-12-11T04:51:28;-2.10;99.90
17813;DHT22;9030;50.792;8.320;2022-12-11T04:53:56;-2.10;99.90
17813;DHT22;9030;50.792;8.320;2022-12-11T04:56:23;-2.10;99.90
17813;DHT22;9030;50.792;8.320;2022-12-11T04:58:50;-2.00;99.90
17813;DHT22;9030;50.792;8.320;2022-12-11T05:01:19;-2.00;99.90
17813;DHT22;9030;50.792;8.320;2022-12-11T05:03:46;-2.00;99.90
17813;DHT22;9030;50.792;8.320;2022-12-11T05:06:13;-2.00;99.90
17813;DHT22;9030;50.792;8.320;2022-12-11T05:08:42;-2.00;99.90
17813;DHT22;9030;50.792;8.320;2022-12-11T05:11:11;-2.10;99.90
17813;DHT22;9030;50.792;8.320;2022-12-11T05:13:39;-2.00;99.90
17813;DHT22;9030;50.792;8.320;2022-12-11T05:16:08;-2.00;99.90
17813;DHT22;9030;50.792;8.320;2022-12-11T05:18:35;-2.00;99.90
17813;DHT22;9030;50.792;8.320;2022-12-11T05:21:03;-2.00;99.90
17813;DHT22;9030;50.792;8.320;2022-12-11T05:23:31;-2.00;99.90
17813;DHT22;9030;50.792;8.320;2022-12-11T05:26:02;-2.00;99.90
17813;DHT22;9030;50.792;8.320;2022-12-11T05:28:30;-2.00;99.90
17813;DHT22;9030;50.792;8.320;2022-12-11T05:30:58;-2.10;99.90
17813;DHT22;9030;50.792;8.320;2022-12-11T05:33:25;-2.00;99.90
17813;DHT22;9030;50.792;8.320;2022-12-11T05:35:52;-2.10;99.90
17813;DHT22;9030;50.792;8.320;2022-12-11T05:38:19;-2.10;99.90
17813;DHT22;9030;50.792;8.320;2022-12-11T05:40:54;-2.00;99.90
17813;DHT22;9030;50.792;8.320;2022-12-11T05:43:23;-2.10;99.90
17813;DHT22;9030;50.792;8.320;2022-12-11T05:45:50;-2.10;99.90
17813;DHT22;9030;50.792;8.320;2022-12-11T05:48:17;-2.00;99.90
17813;DHT22;9030;50.792;8.320;2022-12-11T05:50:43;-2.00;99.90
17813;DHT22;9030;50.792;8.320;2022-12-11T05:53:10;-2.00;99.90
17813;DHT22;9030;50.792;8.320;2022-12-11T05:55:37;-1.90;99.90
17813;DHT22;9030;50.792;8.320;2022-12-11T05:58:04;-1.90;99.90
17813;DHT22;9030;50.792;8.320;2022-12-11T06:00:32;-1.90;99.90
17813;DHT22;9030;50.792;8.320;2022-12-11T06:02:59;-1.90;99.90
17813;DHT22;9030;50.792;8.320;2022-12-11T06:05:25;-1.90;99.90
17813;DHT22;9030;50.792;8.320;2022-12-11T06:07:52;-1.90;99.90
17813;DHT22;9030;50.792;8.320;2022-12-11T06:10:19;-1.90;99.90
17813;DHT22;9030;50.792;8.320;2022-12-11T06:12:45;-1.90;99.90
17813;DHT22;9030;50.792;8.320;2022-12-11T06:15:12;-1.90;99.90
17813;DHT22;9030;50.792;8.320;2022-12-11T06:17:40;-2.00;99.90
17813;DHT22;9030;50.792;8.320;2022-12-11T06:20:08;-2.00;99.90
17813;DHT22;9030;50.792;8.320;2022-12-11T06:22:35;-2.00;99.90
17813;DHT22;9030;50.792;8.320;2022-12-11T06:25:03;-2.00;99.90
17813;DHT22;9030;50.792;8.320;2022-12-11T06:27:29;-2.00;99.90
17813;DHT22;9030;50.792;8.320;2022-12-11T06:29:56;-2.00;99.90
17813;DHT22;9030;50.792;8.320;2022-12-11T06:32:23;-2.00;99.90
17813;DHT22;9030;50.792;8.320;2022-12-11T06:34:51;-2.00;99.90
17813;DHT22;9030;50.792;8.320;2022-12-11T06:37:18;-1.90;99.90
17813;DHT22;9030;50.792;8.320;2022-12-11T06:39:44;-1.90;99.90
17813;DHT22;9030;50.792;8.320;2022-12-11T06:42:11;-2.00;99.90
17813;DHT22;9030;50.792;8.320;2022-12-11T06:44:38;-2.00;99.90
17813;DHT22;9030;50.792;8.320;2022-12-11T06:47:05;-2.10;99.90
17813;DHT22;9030;50.792;8.320;2022-12-11T06:49:31;-2.20;99.90
17813;DHT22;9030;50.792;8.320;2022-12-11T06:51:59;-2.20;99.90
17813;DHT22;9030;50.792;8.320;2022-12-11T06:54:26;-2.20;99.90
17813;DHT22;9030;50.792;8.320;2022-12-11T06:56:53;-2.10;99.90
17813;DHT22;9030;50.792;8.320;2022-12-11T06:59:20;-2.00;99.90
17813;DHT22;9030;50.792;8.320;2022-12-11T07:01:47;-2.00;99.90
17813;DHT22;9030;50.792;8.320;2022-12-11T07:04:13;-2.10;99.90
17813;DHT22;9030;50.792;8.320;2022-12-11T07:06:40;-2.10;99.90
17813;DHT22;9030;50.792;8.320;2022-12-11T07:09:08;-2.10;99.90
17813;DHT22;9030;50.792;8.320;2022-12-11T07:11:35;-2.10;99.90
17813;DHT22;9030;50.792;8.320;2022-12-11T07:14:02;-2.10;99.90
17813;DHT22;9030;50.792;8.320;2022-12-11T07:16:29;-2.10;99.90
17813;DHT22;9030;50.792;8.320;2022-12-11T07:18:55;-2.00;99.90
17813;DHT22;9030;50.792;8.320;2022-12-11T07:21:22;-2.00;99.90
17813;DHT22;9030;50.792;8.320;2022-12-11T07:23:50;-1.90;99.90
17813;DHT22;9030;50.792;8.320;2022-12-11T07:26:20;-1.90;99.90
17813;DHT22;9030;50.792;8.320;2022-12-11T07:28:47;-1.80;99.90
17813;DHT22;9030;50.792;8.320;2022-12-11T07:31:16;-1.90;99.90
17813;DHT22;9030;50.792;8.320;2022-12-11T07:33:43;-1.90;99.90
17813;DHT22;9030;50.792;8.320;2022-12-11T07:36:12;-1.80;99.90
17813;DHT22;9030;50.792;8.320;2022-12-11T07:38:40;-1.90;99.90
17813;DHT22;9030;50.792;8.320;2022-12-11T07:41:09;-1.90;99.90
17813;DHT22;9030;50.792;8.320;2022-12-11T07:43:38;-1.80;99.90
17813;DHT22;9030;50.792;8.320;2022-12-11T07:46:06;-1.80;99.90
17813;DHT22;9030;50.792;8.320;2022-12-11T07:48:34;-1.80;99.90
17813;DHT22;9030;50.792;8.320;2022-12-11T07:51:10;-1.80;99.90
17813;DHT22;9030;50.792;8.320;2022-12-11T07:53:39;-1.80;99.90
17813;DHT22;9030;50.792;8.320;2022-12-11T07:56:06;-1.80;99.90
17813;DHT22;9030;50.792;8.320;2022-12-11T07:58:33;-1.80;99.90
17813;DHT22;9030;50.792;8.320;2022-12-11T08:01:04;-1.80;99.90
17813;DHT22;9030;50.792;8.320;2022-12-11T08:03:31;-1.80;99.90
17813;DHT22;9030;50.792;8.320;2022-12-11T08:05:57;-1.80;99.90
17813;DHT22;9030;50.792;8.320;2022-12-11T08:08:24;-1.90;99.90
17813;DHT22;9030;50.792;8.320;2022-12-11T08:10:51;-1.90;99.90
17813;DHT22;9030;50.792;8.320;2022-12-11T08:13:18;-1.80;99.90
17813;DHT22;9030;50.792;8.320;2022-12-11T08:15:45;-1.80;99.90
17813;DHT22;9030;50.792;8.320;2022-12-11T08:18:13;-1.80;99.90
17813;DHT22;9030;50.792;8.320;2022-12-11T08:20:40;-1.70;99.90
17813;DHT22;9030;50.792;8.320;2022-12-11T08:23:07;-1.70;99.90
17813;DHT22;9030;50.792;8.320;2022-12-11T08:25:34;-1.70;99.90
17813;DHT22;9030;50.792;8.320;2022-12-11T08:28:01;-1.70;99.90
17813;DHT22;9030;50.792;8.320;2022-12-11T08:30:30;-1.70;99.90
17813;DHT22;9030;50.792;8.320;2022-12-11T08:32:57;-1.70;99.90
17813;DHT22;9030;50.792;8.320;2022-12-11T08:35:25;-1.70;99.90
17813;DHT22;9030;50.792;8.320;2022-12-11T08:37:52;-1.80;99.90
17813;DHT22;9030;50.792;8.320;2022-12-11T08:40:19;-1.90;99.90
17813;DHT22;9030;50.792;8.320;2022-12-11T08:42:46;-1.90;99.90
17813;DHT22;9030;50.792;8.320;2022-12-11T08:45:13;-1.90;99.90
17813;DHT22;9030;50.792;8.320;2022-12-11T08:47:40;-1.90;99.90
17813;DHT22;9030;50.792;8.320;2022-12-11T08:50:09;-1.80;99.90
17813;DHT22;9030;50.792;8.320;2022-12-11T08:52:38;-1.70;99.90
17813;DHT22;9030;50.792;8.320;2022-12-11T08:55:06;-1.70;99.90
17813;DHT22;9030;50.792;8.320;2022-12-11T08:57:33;-1.70;99.90
17813;DHT22;9030;50.792;8.320;2022-12-11T09:00:03;-1.70;99.90
17813;DHT22;9030;50.792;8.320;2022-12-11T09:02:29;-1.60;99.90
17813;DHT22;9030;50.792;8.320;2022-12-11T09:04:56;-1.60;99.90
17813;DHT22;9030;50.792;8.320;2022-12-11T09:07:23;-1.60;99.90
17813;DHT22;9030;50.792;8.320;2022-12-11T09:09:54;-1.60;99.90
17813;DHT22;9030;50.792;8.320;2022-12-11T09:12:21;-1.60;99.90
17813;DHT22;9030;50.792;8.320;2022-12-11T09:14:48;-1.60;99.90
17813;DHT22;9030;50.792;8.320;2022-12-11T09:17:18;-1.50;99.90
17813;DHT22;9030;50.792;8.320;2022-12-11T09:19:47;-1.70;99.90
17813;DHT22;9030;50.792;8.320;2022-12-11T09:22:19;-1.60;99.90
17813;DHT22;9030;50.792;8.320;2022-12-11T09:24:46;-1.60;99.90
17813;DHT22;9030;50.792;8.320;2022-12-11T09:27:14;-1.60;99.90
17813;DHT22;9030;50.792;8.320;2022-12-11T09:29:41;-1.60;99.90
17813;DHT22;9030;50.792;8.320;2022-12-11T09:32:18;-1.50;99.90
17813;DHT22;9030;50.792;8.320;2022-12-11T09:34:51;-1.50;99.90
17813;DHT22;9030;50.792;8.320;2022-12-11T09:37:26;-1.50;99.90
17813;DHT22;9030;50.792;8.320;2022-12-11T09:39:52;-1.50;99.90
17813;DHT22;9030;50.792;8.320;2022-12-11T09:42:30;-1.50;99.90
17813;DHT22;9030;50.792;8.320;2022-12-11T09:45:03;-1.50;99.90
17813;DHT22;9030;50.792;8.320;2022-12-11T09:47:34;-1.50;99.90
17813;DHT22;9030;50.792;8.320;2022-12-11T09:50:04;-1.40;99.90
17813;DHT22;9030;50.792;8.320;2022-12-11T09:52:39;-1.60;99.90
17813;DHT22;9030;50.792;8.320;2022-12-11T09:55:14;-1.60;99.90
17813;DHT22;9030;50.792;8.320;2022-12-11T09:57:47;-1.50;99.90
17813;DHT22;9030;50.792;8.320;2022-12-11T10:00:23;-1.40;99.90
17813;DHT22;9030;50.792;8.320;2022-12-11T10:05:49;-1.50;99.90
17813;DHT22;9030;50.792;8.320;2022-12-11T10:08:24;-1.40;99.90
17813;DHT22;9030;50.792;8.320;2022-12-11T10:10:58;-1.50;99.90
17813;DHT22;9030;50.792;8.320;2022-12-11T10:13:34;-1.40;99.90
17813;DHT22;9030;50.792;8.320;2022-12-11T10:16:11;-1.40;99.90
17813;DHT22;9030;50.792;8.320;2022-12-11T10:18:40;-1.40;99.90
17813;DHT22;9030;50.792;8.320;2022-12-11T10:21:08;-1.30;99.90
17813;DHT22;9030;50.792;8.320;2022-12-11T10:23:40;-1.20;99.90
17813;DHT22;9030;50.792;8.320;2022-12-11T10:26:14;-1.20;99.90
17813;DHT22;9030;50.792;8.320;2022-12-11T10:28:43;-1.20;99.90
17813;DHT22;9030;50.792;8.320;2022-12-11T10:31:15;-1.20;99.90
17813;DHT22;9030;50.792;8.320;2022-12-11T10:33:53;-1.20;99.90
17813;DHT22;9030;50.792;8.320;2022-12-11T10:36:27;-1.10;99.90
17813;DHT22;9030;50.792;8.320;2022-12-11T10:38:55;-1.20;99.90
17813;DHT22;9030;50.792;8.320;2022-12-11T10:41:29;-1.20;99.90
17813;DHT22;9030;50.792;8.320;2022-12-11T10:44:00;-1.20;99.90
17813;DHT22;9030;50.792;8.320;2022-12-11T10:46:28;-1.20;99.90
17813;DHT22;9030;50.792;8.320;2022-12-11T10:48:59;-1.30;99.90
17813;DHT22;9030;50.792;8.320;2022-12-11T10:51:34;-1.30;99.90
17813;DHT22;9030;50.792;8.320;2022-12-11T10:54:05;-1.10;99.90
17813;DHT22;9030;50.792;8.320;2022-12-11T10:56:46;-1.20;99.90
17813;DHT22;9030;50.792;8.320;2022-12-11T10:59:22;-1.20;99.90
17813;DHT22;9030;50.792;8.320;2022-12-11T11:01:49;-1.10;99.90
17813;DHT22;9030;50.792;8.320;2022-12-11T11:04:20;-1.10;99.90
17813;DHT22;9030;50.792;8.320;2022-12-11T11:07:01;-1.00;99.90
17813;DHT22;9030;50.792;8.320;2022-12-11T11:09:47;-1.00;99.90
17813;DHT22;9030;50.792;8.320;2022-12-11T11:12:19;-1.20;99.90
17813;DHT22;9030;50.792;8.320;2022-12-11T11:14:58;-1.20;99.90
17813;DHT22;9030;50.792;8.320;2022-12-11T11:17:25;-1.10;99.90
17813;DHT22;9030;50.792;8.320;2022-12-11T11:19:52;-1.10;99.90
17813;DHT22;9030;50.792;8.320;2022-12-11T11:22:19;-1.00;99.90
17813;DHT22;9030;50.792;8.320;2022-12-11T11:24:53;-1.00;99.90
17813;DHT22;9030;50.792;8.320;2022-12-11T11:27:28;-1.00;99.90
17813;DHT22;9030;50.792;8.320;2022-12-11T11:30:00;-1.00;99.90
17813;DHT22;9030;50.792;8.320;2022-12-11T11:32:32;-0.90;99.90
17813;DHT22;9030;50.792;8.320;2022-12-11T11:35:17;-0.80;99.90
17813;DHT22;9030;50.792;8.320;2022-12-11T11:37:46;-0.80;99.90
17813;DHT22;9030;50.792;8.320;2022-12-11T11:40:24;-0.90;99.90
17813;DHT22;9030;50.792;8.320;2022-12-11T11:43:01;-0.90;99.90
17813;DHT22;9030;50.792;8.320;2022-12-11T11:45:36;-1.20;99.90
17813;DHT22;9030;50.792;8.320;2022-12-11T11:48:12;-1.30;99.90
17813;DHT22;9030;50.792;8.320;2022-12-11T11:50:44;-1.30;99.90
17813;DHT22;9030;50.792;8.320;2022-12-11T11:53:18;-1.10;99.90
17813;DHT22;9030;50.792;8.320;2022-12-11T11:55:50;-1.00;99.90
17813;DHT22;9030;50.792;8.320;2022-12-11T11:58:23;-1.00;99.90
17813;DHT22;9030;50.792;8.320;2022-12-11T12:00:53;-1.10;99.90
17813;DHT22;9030;50.792;8.320;2022-12-11T12:03:23;-1.30;99.90
17813;DHT22;9030;50.792;8.320;2022-12-11T12:05:54;-1.30;99.90
17813;DHT22;9030;50.792;8.320;2022-12-11T12:08:34;-1.40;99.90
17813;DHT22;9030;50.792;8.320;2022-12-11T12:11:06;-1.40;99.90
17813;DHT22;9030;50.792;8.320;2022-12-11T12:13:44;-1.40;99.90
17813;DHT22;9030;50.792;8.320;2022-12-11T12:16:21;-1.40;99.90
17813;DHT22;9030;50.792;8.320;2022-12-11T12:19:02;-1.40;99.90
17813;DHT22;9030;50.792;8.320;2022-12-11T12:21:35;-1.40;99.90
17813;DHT22;9030;50.792;8.320;2022-12-11T12:24:10;-1.40;99.90
17813;DHT22;9030;50.792;8.320;2022-12-11T12:26:40;-1.40;99.90
17813;DHT22;9030;50.792;8.320;2022-12-11T12:29:15;-1.30;99.90
17813;DHT22;9030;50.792;8.320;2022-12-11T12:31:52;-1.10;99.90
17813;DHT22;9030;50.792;8.320;2022-12-11T12:34:30;-1.00;99.90
17813;DHT22;9030;50.792;8.320;2022-12-11T12:37:03;-0.90;99.90
17813;DHT22;9030;50.792;8.320;2022-12-11T12:39:41;-0.80;99.90
17813;DHT22;9030;50.792;8.320;2022-12-11T12:42:16;-0.80;99.90
17813;DHT22;9030;50.792;8.320;2022-12-11T12:44:53;-0.80;99.90
17813;DHT22;9030;50.792;8.320;2022-12-11T12:47:26;-0.80;99.90
17813;DHT22;9030;50.792;8.320;2022-12-11T12:49:54;-1.00;99.90
17813;DHT22;9030;50.792;8.320;2022-12-11T12:52:25;-1.20;99.90
17813;DHT22;9030;50.792;8.320;2022-12-11T12:54:56;-1.00;99.90
17813;DHT22;9030;50.792;8.320;2022-12-11T12:57:43;-0.80;99.90
17813;DHT22;9030;50.792;8.320;2022-12-11T13:00:11;-0.80;99.90
17813;DHT22;9030;50.792;8.320;2022-12-11T13:02:47;-1.00;99.90
17813;DHT22;9030;50.792;8.320;2022-12-11T13:05:19;-1.00;99.90
17813;DHT22;9030;50.792;8.320;2022-12-11T13:07:49;-0.90;99.90
17813;DHT22;9030;50.792;8.320;2022-12-11T13:10:25;-1.00;99.90
17813;DHT22;9030;50.792;8.320;2022-12-11T13:12:53;-0.90;99.90
17813;DHT22;9030;50.792;8.320;2022-12-11T13:15:41;-0.90;99.90
17813;DHT22;9030;50.792;8.320;2022-12-11T13:18:32;-0.80;99.90
17813;DHT22;9030;50.792;8.320;2022-12-11T13:21:00;-0.70;99.90
17813;DHT22;9030;50.792;8.320;2022-12-11T13:23:28;-0.70;99.90
17813;DHT22;9030;50.792;8.320;2022-12-11T13:25:58;-0.80;99.90
17813;DHT22;9030;50.792;8.320;2022-12-11T13:28:45;-1.00;99.90
17813;DHT22;9030;50.792;8.320;2022-12-11T13:31:28;-1.10;99.90
17813;DHT22;9030;50.792;8.320;2022-12-11T13:34:06;-1.20;99.90
17813;DHT22;9030;50.792;8.320;2022-12-11T13:36:34;-1.20;99.90
17813;DHT22;9030;50.792;8.320;2022-12-11T13:39:05;-1.10;99.90
17813;DHT22;9030;50.792;8.320;2022-12-11T13:41:34;-1.10;99.90
17813;DHT22;9030;50.792;8.320;2022-12-11T13:44:03;-1.10;99.90
17813;DHT22;9030;50.792;8.320;2022-12-11T13:46:34;-1.10;99.90
17813;DHT22;9030;50.792;8.320;2022-12-11T13:49:04;-1.10;99.90
17813;DHT22;9030;50.792;8.320;2022-12-11T13:51:32;-1.10;99.90
17813;DHT22;9030;50.792;8.320;2022-12-11T13:54:12;-1.10;99.90
17813;DHT22;9030;50.792;8.320;2022-12-11T13:56:40;-1.10;99.90
17813;DHT22;9030;50.792;8.320;2022-12-11T13:59:23;-1.00;99.90
17813;DHT22;9030;50.792;8.320;2022-12-11T14:01:53;-0.90;99.90
17813;DHT22;9030;50.792;8.320;2022-12-11T14:04:23;-0.90;99.90
17813;DHT22;9030;50.792;8.320;2022-12-11T14:06:52;-1.00;99.90
17813;DHT22;9030;50.792;8.320;2022-12-11T14:09:20;-1.00;99.90
17813;DHT22;9030;50.792;8.320;2022-12-11T14:11:49;-1.00;99.90
17813;DHT22;9030;50.792;8.320;2022-12-11T14:14:20;-0.90;99.90
17813;DHT22;9030;50.792;8.320;2022-12-11T14:16:49;-1.00;99.90
17813;DHT22;9030;50.792;8.320;2022-12-11T14:19:18;-0.90;99.90
17813;DHT22;9030;50.792;8.320;2022-12-11T14:21:56;-0.90;99.90
17813;DHT22;9030;50.792;8.320;2022-12-11T14:24:24;-1.00;99.90
17813;DHT22;9030;50.792;8.320;2022-12-11T14:26:52;-1.00;99.90
17813;DHT22;9030;50.792;8.320;2022-12-11T14:29:24;-1.00;99.90
17813;DHT22;9030;50.792;8.320;2022-12-11T14:31:51;-1.00;99.90
17813;DHT22;9030;50.792;8.320;2022-12-11T14:34:22;-1.10;99.90
17813;DHT22;9030;50.792;8.320;2022-12-11T14:36:50;-1.10;99.90
17813;DHT22;9030;50.792;8.320;2022-12-11T14:39:23;-1.20;99.90
17813;DHT22;9030;50.792;8.320;2022-12-11T14:41:56;-1.20;99.90
17813;DHT22;9030;50.792;8.320;2022-12-11T14:44:25;-1.20;99.90
17813;DHT22;9030;50.792;8.320;2022-12-11T14:46:56;-1.20;99.90
17813;DHT22;9030;50.792;8.320;2022-12-11T14:49:29;-1.20;99.90
17813;DHT22;9030;50.792;8.320;2022-12-11T14:51:57;-1.10;99.90
17813;DHT22;9030;50.792;8.320;2022-12-11T14:54:31;-1.20;99.90
17813;DHT22;9030;50.792;8.320;2022-12-11T14:57:00;-1.20;99.90
17813;DHT22;9030;50.792;8.320;2022-12-11T14:59:28;-1.30;99.90
17813;DHT22;9030;50.792;8.320;2022-12-11T15:01:58;-1.30;99.90
17813;DHT22;9030;50.792;8.320;2022-12-11T15:04:30;-1.30;99.90
17813;DHT22;9030;50.792;8.320;2022-12-11T15:06:58;-1.30;99.90
17813;DHT22;9030;50.792;8.320;2022-12-11T15:09:28;-1.20;99.90
17813;DHT22;9030;50.792;8.320;2022-12-11T15:11:58;-1.30;99.90
17813;DHT22;9030;50.792;8.320;2022-12-11T15:14:26;-1.20;99.90
17813;DHT22;9030;50.792;8.320;2022-12-11T15:16:55;-1.30;99.90
17813;DHT22;9030;50.792;8.320;2022-12-11T15:19:27;-1.40;99.90
17813;DHT22;9030;50.792;8.320;2022-12-11T15:22:00;-1.40;99.90
17813;DHT22;9030;50.792;8.320;2022-12-11T15:24:35;-1.30;99.90
17813;DHT22;9030;50.792;8.320;2022-12-11T15:27:03;-1.30;99.90
17813;DHT22;9030;50.792;8.320;2022-12-11T15:29:33;-1.40;99.90
17813;DHT22;9030;50.792;8.320;2022-12-11T15:32:03;-1.40;99.90
17813;DHT22;9030;50.792;8.320;2022-12-11T15:34:43;-1.40;99.90
17813;DHT22;9030;50.792;8.320;2022-12-11T15:37:17;-1.40;99.90
17813;DHT22;9030;50.792;8.320;2022-12-11T15:39:46;-1.40;99.90
17813;DHT22;9030;50.792;8.320;2022-12-11T15:42:15;-1.40;99.90
17813;DHT22;9030;50.792;8.320;2022-12-11T15:44:44;-1.40;99.90
17813;DHT22;9030;50.792;8.320;2022-12-11T15:47:12;-1.40;99.90
17813;DHT22;9030;50.792;8.320;2022-12-11T15:49:39;-1.40;99.90
17813;DHT22;9030;50.792;8.320;2022-12-11T15:52:05;-1.40;99.90
17813;DHT22;9030;50.792;8.320;2022-12-11T15:54:32;-1.40;99.90
17813;DHT22;9030;50.792;8.320;2022-12-11T15:57:03;-1.40;99.90
17813;DHT22;9030;50.792;8.320;2022-12-11T15:59:32;-1.40;99.90
17813;DHT22;9030;50.792;8.320;2022-12-11T16:02:00;-1.30;99.90
17813;DHT22;9030;50.792;8.320;2022-12-11T16:04:26;-1.30;99.90
17813;DHT22;9030;50.792;8.320;2022-12-11T16:06:53;-1.30;99.90